OPKC/KHI METAR and TAF weather

Enter ICAO airport designator
Station Type Date Time Source
OPKC METAR 2019/02/16 02:55 UTC NOAA

OPKC 160255Z 07009KT 4000 HZ NSC 14/04 Q1019 NOSIG


Station Type Date Time Source
OPKC Decoded METAR 2019/02/16 02:55 UTC NOAA

Karachi Airport, Pakistan (OPKC) 24-54N 067-08E 22M
Feb 15, 2019 - 09:55 PM EST / 2019.02.16 0255 UTC
Wind: from the ENE (070 degrees) at 10 MPH (9 KT):0
Visibility: 2 mile(s):0
Weather: haze
Temperature: 57 F (14 C)
Dew Point: 39 F (4 C)
Relative Humidity: 50%
Pressure (altimeter): 30.09 in. Hg (1019 hPa)
ob: OPKC 160255Z 07009KT 4000 HZ NSC 14/04 Q1019 NOSIG
cycle: 3

Station Type Date Time Source
OPKC TAF 2019/02/15 18:30 UTC NOAA

TAF OPKC 151530Z 1518/1624 05007KT 5000 FU NSC
TEMPO 1600/1604 03005KT 3000 FU NSC
FM160900 25010KT 6000 NSC
BECMG 1619/1621 04005KT 5000 FU NSC


Example: see airport list